sensor_id;sensor_type;location;lat;lon;timestamp;pressure;altitude;pressure_sealevel;temperature;humidity
73748;BME280;62056;52.130;5.428;2023-07-20T00:01:50;101655.97;;;17.32;75.42
73748;BME280;62056;52.130;5.428;2023-07-20T00:04:16;101661.03;;;17.34;75.50
73748;BME280;62056;52.130;5.428;2023-07-20T00:06:50;101655.19;;;17.32;75.54
73748;BME280;62056;52.130;5.428;2023-07-20T00:09:17;101655.50;;;17.30;75.85
73748;BME280;62056;52.130;5.428;2023-07-20T00:11:49;101654.41;;;17.31;76.12
73748;BME280;62056;52.130;5.428;2023-07-20T00:14:20;101664.34;;;17.31;76.72
73748;BME280;62056;52.130;5.428;2023-07-20T00:16:49;101650.41;;;17.29;76.60
73748;BME280;62056;52.130;5.428;2023-07-20T00:19:25;101647.88;;;17.24;76.35
73748;BME280;62056;52.130;5.428;2023-07-20T00:21:53;101654.69;;;17.21;76.39
73748;BME280;62056;52.130;5.428;2023-07-20T00:24:23;101656.41;;;17.17;76.84
73748;BME280;62056;52.130;5.428;2023-07-20T00:26:50;101647.22;;;17.18;76.60
73748;BME280;62056;52.130;5.428;2023-07-20T00:29:17;101652.78;;;17.22;76.33
73748;BME280;62056;52.130;5.428;2023-07-20T00:31:44;101649.47;;;17.25;75.18
73748;BME280;62056;52.130;5.428;2023-07-20T00:34:13;101647.59;;;17.25;75.21
73748;BME280;62056;52.130;5.428;2023-07-20T00:36:40;101654.06;;;17.24;75.34
73748;BME280;62056;52.130;5.428;2023-07-20T00:39:08;101652.00;;;17.21;75.13
73748;BME280;62056;52.130;5.428;2023-07-20T00:41:34;101650.22;;;17.16;75.24
73748;BME280;62056;52.130;5.428;2023-07-20T00:44:02;101648.94;;;17.14;75.36
73748;BME280;62056;52.130;5.428;2023-07-20T00:46:31;101645.47;;;17.13;75.48
73748;BME280;62056;52.130;5.428;2023-07-20T00:48:59;101647.38;;;17.13;75.42
73748;BME280;62056;52.130;5.428;2023-07-20T00:51:30;101648.00;;;17.10;74.96
73748;BME280;62056;52.130;5.428;2023-07-20T00:54:00;101651.31;;;17.07;75.28
73748;BME280;62056;52.130;5.428;2023-07-20T00:56:30;101659.97;;;17.04;75.14
73748;BME280;62056;52.130;5.428;2023-07-20T00:59:00;101651.75;;;17.00;75.46
73748;BME280;62056;52.130;5.428;2023-07-20T01:01:32;101655.53;;;16.99;75.13
73748;BME280;62056;52.130;5.428;2023-07-20T01:04:09;101651.09;;;16.94;76.01
73748;BME280;62056;52.130;5.428;2023-07-20T01:09:19;101655.31;;;16.87;78.04
73748;BME280;62056;52.130;5.428;2023-07-20T01:12:00;101658.63;;;16.84;77.30
73748;BME280;62056;52.130;5.428;2023-07-20T01:14:31;101656.81;;;16.79;76.61
73748;BME280;62056;52.130;5.428;2023-07-20T01:17:01;101654.47;;;16.77;75.90
73748;BME280;62056;52.130;5.428;2023-07-20T01:19:30;101659.94;;;16.72;76.69
73748;BME280;62056;52.130;5.428;2023-07-20T01:28:22;101660.09;;;16.67;77.76
73748;BME280;62056;52.130;5.428;2023-07-20T01:31:21;101649.78;;;16.61;78.15
73748;BME280;62056;52.130;5.428;2023-07-20T01:33:51;101663.03;;;16.57;76.71
73748;BME280;62056;52.130;5.428;2023-07-20T01:36:24;101657.97;;;16.55;76.55
73748;BME280;62056;52.130;5.428;2023-07-20T01:38:56;101662.34;;;16.51;76.79
73748;BME280;62056;52.130;5.428;2023-07-20T01:41:23;101660.28;;;16.48;76.87
73748;BME280;62056;52.130;5.428;2023-07-20T01:43:50;101662.16;;;16.48;76.39
73748;BME280;62056;52.130;5.428;2023-07-20T01:46:17;101655.72;;;16.49;75.61
73748;BME280;62056;52.130;5.428;2023-07-20T01:48:47;101652.25;;;16.48;76.05
73748;BME280;62056;52.130;5.428;2023-07-20T01:51:15;101652.84;;;16.45;76.01
73748;BME280;62056;52.130;5.428;2023-07-20T01:53:44;101658.22;;;16.45;76.27
73748;BME280;62056;52.130;5.428;2023-07-20T01:56:11;101663.09;;;16.43;75.19
73748;BME280;62056;52.130;5.428;2023-07-20T01:58:38;101671.75;;;16.40;75.61
73748;BME280;62056;52.130;5.428;2023-07-20T02:01:06;101666.50;;;16.35;75.10
73748;BME280;62056;52.130;5.428;2023-07-20T02:03:33;101670.91;;;16.31;76.01
73748;BME280;62056;52.130;5.428;2023-07-20T02:06:00;101670.25;;;16.25;76.19
73748;BME280;62056;52.130;5.428;2023-07-20T02:08:27;101662.28;;;16.20;76.11
73748;BME280;62056;52.130;5.428;2023-07-20T02:10:55;101663.69;;;16.17;75.86
73748;BME280;62056;52.130;5.428;2023-07-20T02:13:22;101652.78;;;16.14;76.08
73748;BME280;62056;52.130;5.428;2023-07-20T02:15:49;101661.59;;;16.14;76.00
73748;BME280;62056;52.130;5.428;2023-07-20T02:18:18;101661.59;;;16.14;76.47
73748;BME280;62056;52.130;5.428;2023-07-20T02:20:47;101672.66;;;16.13;76.59
73748;BME280;62056;52.130;5.428;2023-07-20T02:23:16;101660.34;;;16.12;76.55
73748;BME280;62056;52.130;5.428;2023-07-20T02:25:44;101672.19;;;16.11;76.31
73748;BME280;62056;52.130;5.428;2023-07-20T02:28:13;101667.88;;;16.10;76.34
73748;BME280;62056;52.130;5.428;2023-07-20T02:30:46;101665.81;;;16.07;76.40
73748;BME280;62056;52.130;5.428;2023-07-20T02:33:13;101668.31;;;16.03;76.35
73748;BME280;62056;52.130;5.428;2023-07-20T02:35:40;101671.28;;;16.02;75.97
73748;BME280;62056;52.130;5.428;2023-07-20T02:38:10;101667.03;;;16.01;76.62
73748;BME280;62056;52.130;5.428;2023-07-20T02:40:39;101679.66;;;16.00;76.48
73748;BME280;62056;52.130;5.428;2023-07-20T02:43:05;101666.25;;;16.00;76.16
73748;BME280;62056;52.130;5.428;2023-07-20T02:45:32;101671.13;;;15.98;75.87
73748;BME280;62056;52.130;5.428;2023-07-20T02:48:02;101666.84;;;15.97;75.83
73748;BME280;62056;52.130;5.428;2023-07-20T02:50:31;101672.50;;;15.95;75.66
73748;BME280;62056;52.130;5.428;2023-07-20T02:52:58;101667.47;;;15.94;75.30
73748;BME280;62056;52.130;5.428;2023-07-20T02:55:25;101674.19;;;15.91;74.82
73748;BME280;62056;52.130;5.428;2023-07-20T02:57:51;101674.31;;;15.86;75.29
73748;BME280;62056;52.130;5.428;2023-07-20T03:00:22;101678.69;;;15.82;74.66
73748;BME280;62056;52.130;5.428;2023-07-20T03:02:50;101682.47;;;15.81;75.09
73748;BME280;62056;52.130;5.428;2023-07-20T03:05:19;101686.53;;;15.78;74.71
73748;BME280;62056;52.130;5.428;2023-07-20T03:07:47;101696.47;;;15.78;75.36
73748;BME280;62056;52.130;5.428;2023-07-20T03:10:14;101698.66;;;15.76;75.16
73748;BME280;62056;52.130;5.428;2023-07-20T03:12:41;101690.91;;;15.74;75.51
73748;BME280;62056;52.130;5.428;2023-07-20T03:15:08;101704.41;;;15.69;75.41
73748;BME280;62056;52.130;5.428;2023-07-20T03:17:38;101710.34;;;15.66;75.53
73748;BME280;62056;52.130;5.428;2023-07-20T03:20:07;101721.41;;;15.65;75.86
73748;BME280;62056;52.130;5.428;2023-07-20T03:22:38;101716.13;;;15.59;76.08
73748;BME280;62056;52.130;5.428;2023-07-20T03:25:05;101710.56;;;15.56;76.72
73748;BME280;62056;52.130;5.428;2023-07-20T03:27:32;101714.63;;;15.53;76.32
73748;BME280;62056;52.130;5.428;2023-07-20T03:29:59;101722.19;;;15.51;76.45
73748;BME280;62056;52.130;5.428;2023-07-20T03:32:26;101711.75;;;15.50;76.04
73748;BME280;62056;52.130;5.428;2023-07-20T03:34:56;101707.50;;;15.49;76.00
73748;BME280;62056;52.130;5.428;2023-07-20T03:37:23;101707.00;;;15.47;76.26
73748;BME280;62056;52.130;5.428;2023-07-20T03:39:50;101705.88;;;15.48;76.05
73748;BME280;62056;52.130;5.428;2023-07-20T03:42:18;101707.00;;;15.47;75.63
73748;BME280;62056;52.130;5.428;2023-07-20T03:44:44;101711.38;;;15.43;75.96
73748;BME280;62056;52.130;5.428;2023-07-20T03:47:11;101712.75;;;15.40;75.98
73748;BME280;62056;52.130;5.428;2023-07-20T03:49:41;101713.34;;;15.37;76.07
73748;BME280;62056;52.130;5.428;2023-07-20T03:52:09;101709.97;;;15.31;76.12
73748;BME280;62056;52.130;5.428;2023-07-20T03:54:36;101714.34;;;15.27;76.34
73748;BME280;62056;52.130;5.428;2023-07-20T03:57:06;101713.91;;;15.20;77.02
73748;BME280;62056;52.130;5.428;2023-07-20T03:59:37;101715.53;;;15.21;77.19
73748;BME280;62056;52.130;5.428;2023-07-20T04:02:04;101716.31;;;15.22;77.11
73748;BME280;62056;52.130;5.428;2023-07-20T04:04:35;101717.59;;;15.24;76.86
73748;BME280;62056;52.130;5.428;2023-07-20T04:07:04;101719.78;;;15.22;76.47
73748;BME280;62056;52.130;5.428;2023-07-20T04:09:31;101723.84;;;15.20;76.84
73748;BME280;62056;52.130;5.428;2023-07-20T04:11:58;101720.97;;;15.16;77.00
73748;BME280;62056;52.130;5.428;2023-07-20T04:14:28;101737.03;;;15.16;77.56
73748;BME280;62056;52.130;5.428;2023-07-20T04:16:55;101733.78;;;15.19;77.32
73748;BME280;62056;52.130;5.428;2023-07-20T04:19:22;101735.63;;;15.18;77.28
73748;BME280;62056;52.130;5.428;2023-07-20T04:21:49;101734.06;;;15.17;77.44
73748;BME280;62056;52.130;5.428;2023-07-20T04:24:16;101728.41;;;15.19;78.01
73748;BME280;62056;52.130;5.428;2023-07-20T04:26:43;101744.88;;;15.26;77.86
73748;BME280;62056;52.130;5.428;2023-07-20T04:29:12;101741.63;;;15.29;77.33
73748;BME280;62056;52.130;5.428;2023-07-20T04:31:39;101737.56;;;15.32;76.82
73748;BME280;62056;52.130;5.428;2023-07-20T04:34:06;101739.63;;;15.35;76.97
73748;BME280;62056;52.130;5.428;2023-07-20T04:36:33;101737.78;;;15.35;76.21
73748;BME280;62056;52.130;5.428;2023-07-20T04:38:59;101734.59;;;15.33;76.49
73748;BME280;62056;52.130;5.428;2023-07-20T04:41:29;101736.28;;;15.29;76.35
73748;BME280;62056;52.130;5.428;2023-07-20T04:43:59;101754.03;;;15.25;76.82
73748;BME280;62056;52.130;5.428;2023-07-20T04:46:29;101751.34;;;15.25;76.80
73748;BME280;62056;52.130;5.428;2023-07-20T04:48:56;101755.41;;;15.23;77.12
73748;BME280;62056;52.130;5.428;2023-07-20T04:51:23;101759.47;;;15.20;77.18
73748;BME280;62056;52.130;5.428;2023-07-20T04:53:53;101754.41;;;15.18;76.98
73748;BME280;62056;52.130;5.428;2023-07-20T04:56:20;101753.09;;;15.16;77.25
73748;BME280;62056;52.130;5.428;2023-07-20T04:58:51;101750.72;;;15.14;77.31
73748;BME280;62056;52.130;5.428;2023-07-20T05:01:20;101754.22;;;15.15;77.42
73748;BME280;62056;52.130;5.428;2023-07-20T05:03:49;101752.59;;;15.14;77.59
73748;BME280;62056;52.130;5.428;2023-07-20T05:06:17;101757.19;;;15.13;77.70
73748;BME280;62056;52.130;5.428;2023-07-20T05:08:45;101755.78;;;15.16;77.59
73748;BME280;62056;52.130;5.428;2023-07-20T05:11:14;101753.59;;;15.18;77.55
73748;BME280;62056;52.130;5.428;2023-07-20T05:13:42;101758.97;;;15.18;77.55
73748;BME280;62056;52.130;5.428;2023-07-20T05:16:09;101756.00;;;15.20;77.51
73748;BME280;62056;52.130;5.428;2023-07-20T05:18:38;101760.56;;;15.19;77.79
73748;BME280;62056;52.130;5.428;2023-07-20T05:21:05;101760.25;;;15.21;78.04
73748;BME280;62056;52.130;5.428;2023-07-20T05:23:32;101760.47;;;15.24;78.12
73748;BME280;62056;52.130;5.428;2023-07-20T05:25:59;101755.03;;;15.29;78.96
73748;BME280;62056;52.130;5.428;2023-07-20T05:28:26;101748.50;;;15.35;80.08
73748;BME280;62056;52.130;5.428;2023-07-20T05:30:54;101753.94;;;15.44;81.71
73748;BME280;62056;52.130;5.428;2023-07-20T05:33:21;101750.28;;;15.54;83.95
73748;BME280;62056;52.130;5.428;2023-07-20T05:35:48;101756.75;;;15.67;84.51
73748;BME280;62056;52.130;5.428;2023-07-20T05:38:15;101755.47;;;15.78;85.03
73748;BME280;62056;52.130;5.428;2023-07-20T05:40:45;101761.63;;;15.92;85.99
73748;BME280;62056;52.130;5.428;2023-07-20T05:43:12;101764.38;;;16.01;85.12
73748;BME280;62056;52.130;5.428;2023-07-20T05:45:43;101760.28;;;16.17;84.59
73748;BME280;62056;52.130;5.428;2023-07-20T05:48:12;101756.06;;;16.39;84.66
73748;BME280;62056;52.130;5.428;2023-07-20T05:50:45;101747.44;;;16.65;84.28
73748;BME280;62056;52.130;5.428;2023-07-20T05:53:12;101753.00;;;16.91;84.64
73748;BME280;62056;52.130;5.428;2023-07-20T05:55:42;101743.50;;;17.16;84.15
73748;BME280;62056;52.130;5.428;2023-07-20T05:58:11;101747.41;;;17.41;84.29
73748;BME280;62056;52.130;5.428;2023-07-20T06:00:40;101750.00;;;17.64;83.93
73748;BME280;62056;52.130;5.428;2023-07-20T06:03:12;101756.25;;;17.82;82.12
73748;BME280;62056;52.130;5.428;2023-07-20T06:05:39;101750.31;;;18.02;83.17
73748;BME280;62056;52.130;5.428;2023-07-20T06:08:06;101755.38;;;18.12;80.29
73748;BME280;62056;52.130;5.428;2023-07-20T06:10:38;101759.34;;;18.24;80.16
73748;BME280;62056;52.130;5.428;2023-07-20T06:13:07;101758.88;;;18.39;80.41
73748;BME280;62056;52.130;5.428;2023-07-20T06:15:40;101764.75;;;18.58;80.25
73748;BME280;62056;52.130;5.428;2023-07-20T06:18:10;101763.78;;;18.63;79.16
73748;BME280;62056;52.130;5.428;2023-07-20T06:20:37;101766.66;;;18.67;75.52
73748;BME280;62056;52.130;5.428;2023-07-20T06:23:04;101765.03;;;18.66;76.64
73748;BME280;62056;52.130;5.428;2023-07-20T06:25:32;101766.97;;;18.65;75.95
73748;BME280;62056;52.130;5.428;2023-07-20T06:28:09;101772.34;;;18.65;75.20
73748;BME280;62056;52.130;5.428;2023-07-20T06:30:38;101766.63;;;18.58;74.66
73748;BME280;62056;52.130;5.428;2023-07-20T06:33:08;101768.53;;;18.57;74.52
73748;BME280;62056;52.130;5.428;2023-07-20T06:35:36;101766.31;;;18.59;74.68
73748;BME280;62056;52.130;5.428;2023-07-20T06:38:05;101769.81;;;18.69;74.74
73748;BME280;62056;52.130;5.428;2023-07-20T06:40:42;101767.25;;;18.72;73.75
73748;BME280;62056;52.130;5.428;2023-07-20T06:43:13;101774.72;;;18.75;73.50
73748;BME280;62056;52.130;5.428;2023-07-20T06:45:50;101771.09;;;18.80;73.58
73748;BME280;62056;52.130;5.428;2023-07-20T06:48:22;101780.44;;;18.83;72.57
73748;BME280;62056;52.130;5.428;2023-07-20T06:55:15;101786.75;;;18.95;71.88
73748;BME280;62056;52.130;5.428;2023-07-20T06:58:46;101780.09;;;18.93;71.53
73748;BME280;62056;52.130;5.428;2023-07-20T07:05:34;101788.16;;;19.01;70.42
73748;BME280;62056;52.130;5.428;2023-07-20T07:08:45;101786.88;;;19.08;68.52
73748;BME280;62056;52.130;5.428;2023-07-20T07:18:50;101792.69;;;19.36;70.78
73748;BME280;62056;52.130;5.428;2023-07-20T07:21:17;101783.63;;;19.40;70.27
73748;BME280;62056;52.130;5.428;2023-07-20T07:23:45;101782.63;;;19.45;70.20
73748;BME280;62056;52.130;5.428;2023-07-20T07:26:12;101791.97;;;19.56;70.45
73748;BME280;62056;52.130;5.428;2023-07-20T07:28:39;101793.19;;;19.68;70.52
73748;BME280;62056;52.130;5.428;2023-07-20T07:31:06;101799.63;;;19.84;70.32
73748;BME280;62056;52.130;5.428;2023-07-20T07:33:34;101797.19;;;20.00;69.49
73748;BME280;62056;52.130;5.428;2023-07-20T07:36:06;101791.06;;;20.12;68.72
73748;BME280;62056;52.130;5.428;2023-07-20T07:38:33;101800.06;;;20.16;68.02
73748;BME280;62056;52.130;5.428;2023-07-20T07:41:20;101795.75;;;20.24;66.84
73748;BME280;62056;52.130;5.428;2023-07-20T07:44:23;101795.69;;;20.32;65.74
73748;BME280;62056;52.130;5.428;2023-07-20T07:47:02;101800.41;;;20.35;65.94
73748;BME280;62056;52.130;5.428;2023-07-20T07:49:29;101797.91;;;20.30;65.13
73748;BME280;62056;52.130;5.428;2023-07-20T07:51:59;101800.28;;;20.32;64.91
73748;BME280;62056;52.130;5.428;2023-07-20T07:54:30;101799.63;;;20.35;63.95
73748;BME280;62056;52.130;5.428;2023-07-20T07:56:59;101802.94;;;20.40;63.61
73748;BME280;62056;52.130;5.428;2023-07-20T07:59:26;101797.13;;;20.51;61.32
73748;BME280;62056;52.130;5.428;2023-07-20T08:01:53;101801.78;;;20.41;61.49
73748;BME280;62056;52.130;5.428;2023-07-20T08:04:20;101799.75;;;20.38;60.22
73748;BME280;62056;52.130;5.428;2023-07-20T08:06:48;101804.25;;;20.34;60.00
73748;BME280;62056;52.130;5.428;2023-07-20T08:09:23;101801.78;;;20.41;59.66
73748;BME280;62056;52.130;5.428;2023-07-20T08:11:51;101800.44;;;20.56;60.24
73748;BME280;62056;52.130;5.428;2023-07-20T08:14:18;101794.75;;;20.70;60.01
73748;BME280;62056;52.130;5.428;2023-07-20T08:16:46;101800.88;;;20.79;59.83
73748;BME280;62056;52.130;5.428;2023-07-20T08:19:14;101799.47;;;20.94;59.98
73748;BME280;62056;52.130;5.428;2023-07-20T08:21:41;101796.75;;;20.94;58.64
73748;BME280;62056;52.130;5.428;2023-07-20T08:24:08;101795.63;;;20.95;58.48
73748;BME280;62056;52.130;5.428;2023-07-20T08:26:34;101796.00;;;21.06;58.07
73748;BME280;62056;52.130;5.428;2023-07-20T08:29:01;101797.53;;;20.95;53.22
73748;BME280;62056;52.130;5.428;2023-07-20T08:31:29;101793.84;;;20.99;56.00
73748;BME280;62056;52.130;5.428;2023-07-20T08:33:56;101789.44;;;20.95;55.61
73748;BME280;62056;52.130;5.428;2023-07-20T08:36:23;101799.47;;;20.94;56.17
73748;BME280;62056;52.130;5.428;2023-07-20T08:38:51;101795.88;;;21.02;55.91
73748;BME280;62056;52.130;5.428;2023-07-20T08:41:18;101799.28;;;21.12;54.67
73748;BME280;62056;52.130;5.428;2023-07-20T08:43:46;101804.38;;;21.26;54.94
73748;BME280;62056;52.130;5.428;2023-07-20T08:46:16;101798.19;;;21.37;53.65
73748;BME280;62056;52.130;5.428;2023-07-20T08:48:43;101802.72;;;21.46;52.36
73748;BME280;62056;52.130;5.428;2023-07-20T08:51:12;101797.91;;;21.51;52.08
73748;BME280;62056;52.130;5.428;2023-07-20T08:53:39;101801.63;;;21.47;51.68
73748;BME280;62056;52.130;5.428;2023-07-20T08:56:06;101806.13;;;21.42;51.83
73748;BME280;62056;52.130;5.428;2023-07-20T08:58:34;101805.44;;;21.46;51.86
73748;BME280;62056;52.130;5.428;2023-07-20T09:01:02;101796.69;;;21.61;51.49
73748;BME280;62056;52.130;5.428;2023-07-20T09:03:29;101793.41;;;21.68;50.93
73748;BME280;62056;52.130;5.428;2023-07-20T09:05:56;101796.88;;;21.68;49.97
73748;BME280;62056;52.130;5.428;2023-07-20T09:08:23;101793.06;;;21.81;49.78
73748;BME280;62056;52.130;5.428;2023-07-20T09:10:52;101793.59;;;21.99;49.86
73748;BME280;62056;52.130;5.428;2023-07-20T09:13:18;101795.06;;;22.09;48.49
73748;BME280;62056;52.130;5.428;2023-07-20T09:15:53;101797.28;;;22.19;47.12
73748;BME280;62056;52.130;5.428;2023-07-20T09:18:29;101797.97;;;22.29;48.29
73748;BME280;62056;52.130;5.428;2023-07-20T09:21:04;101792.31;;;22.34;48.01
73748;BME280;62056;52.130;5.428;2023-07-20T09:23:34;101791.91;;;22.48;47.98
73748;BME280;62056;52.130;5.428;2023-07-20T09:26:13;101797.34;;;22.48;45.55
73748;BME280;62056;52.130;5.428;2023-07-20T09:28:44;101794.63;;;22.48;46.20
73748;BME280;62056;52.130;5.428;2023-07-20T09:31:18;101795.56;;;22.39;45.94
73748;BME280;62056;52.130;5.428;2023-07-20T09:33:46;101796.84;;;22.30;45.99
73748;BME280;62056;52.130;5.428;2023-07-20T09:36:15;101795.63;;;22.27;45.44
73748;BME280;62056;52.130;5.428;2023-07-20T09:39:03;101793.88;;;22.22;44.91
73748;BME280;62056;52.130;5.428;2023-07-20T09:41:40;101791.31;;;22.26;44.31
73748;BME280;62056;52.130;5.428;2023-07-20T09:44:11;101785.91;;;22.26;44.45
73748;BME280;62056;52.130;5.428;2023-07-20T09:46:44;101787.13;;;22.29;44.02
73748;BME280;62056;52.130;5.428;2023-07-20T09:49:17;101796.06;;;22.29;44.59
73748;BME280;62056;52.130;5.428;2023-07-20T09:51:52;101783.50;;;22.37;43.59
73748;BME280;62056;52.130;5.428;2023-07-20T09:54:24;101786.16;;;22.49;44.29
73748;BME280;62056;52.130;5.428;2023-07-20T09:56:54;101789.41;;;22.55;44.04
73748;BME280;62056;52.130;5.428;2023-07-20T09:59:47;101778.47;;;22.51;43.76
73748;BME280;62056;52.130;5.428;2023-07-20T10:02:20;101774.81;;;22.59;43.83
73748;BME280;62056;52.130;5.428;2023-07-20T10:04:55;101782.91;;;22.72;43.86
73748;BME280;62056;52.130;5.428;2023-07-20T10:07:32;101780.53;;;22.70;42.52
73748;BME280;62056;52.130;5.428;2023-07-20T10:10:06;101777.59;;;22.75;42.89
73748;BME280;62056;52.130;5.428;2023-07-20T10:12:44;101778.09;;;22.81;42.06
73748;BME280;62056;52.130;5.428;2023-07-20T10:15:26;101778.66;;;22.87;42.34
73748;BME280;62056;52.130;5.428;2023-07-20T10:18:10;101780.25;;;22.88;42.21
73748;BME280;62056;52.130;5.428;2023-07-20T10:21:02;101772.16;;;22.91;41.68
73748;BME280;62056;52.130;5.428;2023-07-20T10:23:41;101776.44;;;22.76;40.60
73748;BME280;62056;52.130;5.428;2023-07-20T10:26:11;101771.63;;;22.70;41.18
73748;BME280;62056;52.130;5.428;2023-07-20T10:28:44;101767.31;;;22.69;41.40
73748;BME280;62056;52.130;5.428;2023-07-20T10:31:13;101764.88;;;22.63;40.61
73748;BME280;62056;52.130;5.428;2023-07-20T10:33:43;101762.72;;;22.69;40.35
73748;BME280;62056;52.130;5.428;2023-07-20T10:36:11;101766.81;;;22.79;40.64
73748;BME280;62056;52.130;5.428;2023-07-20T10:38:52;101761.31;;;22.91;39.68
73748;BME280;62056;52.130;5.428;2023-07-20T10:41:21;101756.28;;;22.90;40.67
73748;BME280;62056;52.130;5.428;2023-07-20T10:43:51;101758.00;;;22.98;40.02
73748;BME280;62056;52.130;5.428;2023-07-20T10:46:42;101758.44;;;23.00;39.45
73748;BME280;62056;52.130;5.428;2023-07-20T10:49:13;101751.31;;;23.08;40.42
73748;BME280;62056;52.130;5.428;2023-07-20T10:51:48;101755.78;;;23.16;39.82
73748;BME280;62056;52.130;5.428;2023-07-20T10:56:44;101753.50;;;23.34;39.43
73748;BME280;62056;52.130;5.428;2023-07-20T11:01:46;101754.28;;;23.34;39.47
73748;BME280;62056;52.130;5.428;2023-07-20T11:04:14;101750.53;;;23.39;39.06
73748;BME280;62056;52.130;5.428;2023-07-20T11:06:44;101743.78;;;23.49;39.64
73748;BME280;62056;52.130;5.428;2023-07-20T11:09:13;101747.06;;;23.58;39.31
73748;BME280;62056;52.130;5.428;2023-07-20T11:11:46;101749.25;;;23.68;39.13
73748;BME280;62056;52.130;5.428;2023-07-20T11:14:24;101746.34;;;23.77;37.49
73748;BME280;62056;52.130;5.428;2023-07-20T11:16:52;101748.19;;;23.89;38.46
73748;BME280;62056;52.130;5.428;2023-07-20T11:19:21;101747.66;;;23.83;38.38
73748;BME280;62056;52.130;5.428;2023-07-20T11:21:55;101742.88;;;23.96;38.12
73748;BME280;62056;52.130;5.428;2023-07-20T11:24:30;101739.91;;;24.01;37.96
73748;BME280;62056;52.130;5.428;2023-07-20T11:26:57;101745.19;;;24.13;38.18
73748;BME280;62056;52.130;5.428;2023-07-20T11:29:24;101731.47;;;24.26;37.98
73748;BME280;62056;52.130;5.428;2023-07-20T11:32:01;101731.81;;;24.43;36.69
73748;BME280;62056;52.130;5.428;2023-07-20T11:34:32;101726.63;;;24.54;36.16
73748;BME280;62056;52.130;5.428;2023-07-20T11:37:02;101729.38;;;24.58;36.02
73748;BME280;62056;52.130;5.428;2023-07-20T11:39:33;101720.38;;;24.54;35.69
73748;BME280;62056;52.130;5.428;2023-07-20T11:42:00;101730.31;;;24.46;35.36
73748;BME280;62056;52.130;5.428;2023-07-20T11:44:30;101728.69;;;24.61;35.65
73748;BME280;62056;52.130;5.428;2023-07-20T11:47:12;101716.94;;;24.57;33.42
73748;BME280;62056;52.130;5.428;2023-07-20T11:49:43;101724.69;;;24.78;35.12
73748;BME280;62056;52.130;5.428;2023-07-20T11:52:16;101722.41;;;24.80;34.60
73748;BME280;62056;52.130;5.428;2023-07-20T11:54:43;101719.69;;;24.80;35.00
73748;BME280;62056;52.130;5.428;2023-07-20T11:57:18;101722.31;;;24.99;34.48
73748;BME280;62056;52.130;5.428;2023-07-20T11:59:58;101711.00;;;24.94;33.59
73748;BME280;62056;52.130;5.428;2023-07-20T12:02:27;101710.25;;;24.97;34.84
73748;BME280;62056;52.130;5.428;2023-07-20T12:04:57;101708.88;;;25.10;34.82
73748;BME280;62056;52.130;5.428;2023-07-20T12:07:27;101707.06;;;25.18;34.17
73748;BME280;62056;52.130;5.428;2023-07-20T12:10:08;101712.16;;;25.19;34.19
73748;BME280;62056;52.130;5.428;2023-07-20T12:12:38;101701.38;;;25.23;34.56
73748;BME280;62056;52.130;5.428;2023-07-20T12:15:15;101710.00;;;25.29;34.00
73748;BME280;62056;52.130;5.428;2023-07-20T12:17:43;101708.53;;;25.35;34.58
73748;BME280;62056;52.130;5.428;2023-07-20T12:20:27;101695.53;;;25.51;34.84
73748;BME280;62056;52.130;5.428;2023-07-20T12:23:07;101691.28;;;25.54;34.65
73748;BME280;62056;52.130;5.428;2023-07-20T12:25:42;101687.16;;;25.63;32.68
73748;BME280;62056;52.130;5.428;2023-07-20T12:30:41;101690.38;;;25.42;33.60
73748;BME280;62056;52.130;5.428;2023-07-20T12:33:08;101702.03;;;25.43;33.85
73748;BME280;62056;52.130;5.428;2023-07-20T12:35:35;101696.34;;;25.25;33.55
73748;BME280;62056;52.130;5.428;2023-07-20T12:38:02;101702.25;;;25.08;34.26
73748;BME280;62056;52.130;5.428;2023-07-20T12:40:29;101692.41;;;24.99;34.20
73748;BME280;62056;52.130;5.428;2023-07-20T12:42:57;101695.31;;;24.87;34.72
73748;BME280;62056;52.130;5.428;2023-07-20T12:45:24;101699.91;;;24.83;34.55
73748;BME280;62056;52.130;5.428;2023-07-20T12:47:51;101692.66;;;24.68;35.01
73748;BME280;62056;52.130;5.428;2023-07-20T12:50:18;101703.47;;;24.64;35.10
73748;BME280;62056;52.130;5.428;2023-07-20T12:52:45;101695.88;;;24.50;35.36
73748;BME280;62056;52.130;5.428;2023-07-20T12:55:12;101694.84;;;24.39;35.63
73748;BME280;62056;52.130;5.428;2023-07-20T12:57:40;101692.47;;;24.37;35.67
73748;BME280;62056;52.130;5.428;2023-07-20T13:00:09;101689.03;;;24.40;36.02
73748;BME280;62056;52.130;5.428;2023-07-20T13:02:37;101691.34;;;24.38;36.21
73748;BME280;62056;52.130;5.428;2023-07-20T13:05:05;101691.03;;;24.43;36.12
73748;BME280;62056;52.130;5.428;2023-07-20T13:07:36;101693.03;;;24.47;35.80
73748;BME280;62056;52.130;5.428;2023-07-20T13:10:08;101692.34;;;24.50;36.10
73748;BME280;62056;52.130;5.428;2023-07-20T13:12:37;101689.25;;;24.51;36.30
73748;BME280;62056;52.130;5.428;2023-07-20T13:15:06;101682.69;;;24.52;36.43
73748;BME280;62056;52.130;5.428;2023-07-20T13:17:36;101684.00;;;24.62;36.50
73748;BME280;62056;52.130;5.428;2023-07-20T13:20:08;101682.75;;;24.79;36.34
73748;BME280;62056;52.130;5.428;2023-07-20T13:22:38;101677.31;;;24.79;36.35
73748;BME280;62056;52.130;5.428;2023-07-20T13:25:07;101678.81;;;24.76;36.37
73748;BME280;62056;52.130;5.428;2023-07-20T13:27:36;101682.69;;;24.75;36.59
73748;BME280;62056;52.130;5.428;2023-07-20T13:30:05;101675.81;;;24.81;36.32
73748;BME280;62056;52.130;5.428;2023-07-20T13:32:36;101671.41;;;24.73;36.48
73748;BME280;62056;52.130;5.428;2023-07-20T13:35:03;101668.91;;;24.64;36.53
73748;BME280;62056;52.130;5.428;2023-07-20T13:37:31;101671.44;;;24.77;36.87
73748;BME280;62056;52.130;5.428;2023-07-20T13:39:58;101671.00;;;24.98;36.71